Time;durP1;ratioP1;P1;durP2;ratioP2;P2;SDS_P1;SDS_P2;PMS_P1;PMS_P2;Temp;Humidity;BMP_temperature;BMP_pressure;BME280_temperature;BME280_humidity;BME280_pressure;Samples;Min_cycle;Max_cycle;Signal;HPM_P1;HPM_P2
2022/01/22 00:02:08;;;;;;;6.00;2.85;;;;;;;3.74;91.15;101610.06;4989140;28;20482;-62
2022/01/22 00:04:34;;;;;;;6.07;2.90;;;;;;;3.72;91.67;101597.34;5006230;28;20247;-64
2022/01/22 00:07:02;;;;;;;4.33;2.87;;;;;;;3.68;91.10;101598.22;5020593;28;20183;-62
2022/01/22 00:09:35;;;;;;;6.43;2.37;;;;;;;3.80;91.10;101601.56;5013757;28;20277;-61
2022/01/22 00:12:00;;;;;;;6.90;2.50;;;;;;;3.78;90.49;101599.00;5006848;28;20229;-62
2022/01/22 00:14:25;;;;;;;4.10;2.50;;;;;;;3.83;90.48;101599.00;5009373;28;20362;-62
2022/01/22 00:16:56;;;;;;;6.07;3.57;;;;;;;3.88;90.61;101602.38;5006438;28;20302;-62
2022/01/22 00:19:22;;;;;;;6.67;3.17;;;;;;;3.81;90.66;101595.63;5011479;28;20187;-62
2022/01/22 00:21:47;;;;;;;6.27;2.87;;;;;;;3.71;90.60;101588.00;5016117;28;20217;-62
2022/01/22 00:24:13;;;;;;;5.23;2.40;;;;;;;3.93;89.83;101594.75;5035381;28;20193;-62
2022/01/22 00:26:39;;;;;;;7.30;2.73;;;;;;;3.89;89.75;101583.72;4995796;28;20546;-62
2022/01/22 00:29:05;;;;;;;6.63;3.10;;;;;;;3.84;89.44;101582.88;5002230;28;20677;-62
2022/01/22 00:31:30;;;;;;;6.77;3.00;;;;;;;3.85;89.29;101580.34;4992576;28;20229;-62
2022/01/22 00:33:56;;;;;;;9.07;3.27;;;;;;;3.83;89.38;101574.41;5010536;28;20570;-62
2022/01/22 00:36:21;;;;;;;7.37;3.17;;;;;;;4.02;89.53;101582.81;5005207;28;20268;-62
2022/01/22 00:38:46;;;;;;;12.47;3.10;;;;;;;3.98;88.97;101588.78;5011839;28;20253;-62
2022/01/22 00:41:11;;;;;;;5.00;2.80;;;;;;;3.91;89.27;101593.88;4992652;28;20625;-62
2022/01/22 00:43:37;;;;;;;6.60;2.90;;;;;;;3.95;89.09;101580.31;5006384;28;20518;-62
2022/01/22 00:46:03;;;;;;;4.37;2.50;;;;;;;3.91;89.18;101592.22;5010070;28;20221;-61
2022/01/22 00:48:28;;;;;;;8.20;3.13;;;;;;;3.90;89.67;101582.88;5002095;28;20266;-62
2022/01/22 00:50:56;;;;;;;10.27;2.60;;;;;;;3.87;89.62;101587.97;5003876;28;20325;-62
2022/01/22 00:53:23;;;;;;;6.47;3.20;;;;;;;3.69;90.14;101587.16;5005093;28;20309;-62
2022/01/22 00:55:48;;;;;;;5.40;2.87;;;;;;;3.75;90.96;101593.94;5013168;28;20218;-62
2022/01/22 00:58:14;;;;;;;6.33;3.47;;;;;;;3.77;90.93;101592.25;5011138;28;20667;-62
2022/01/22 01:00:39;;;;;;;5.63;3.03;;;;;;;3.83;90.35;101591.38;5005879;28;20233;-62
2022/01/22 01:03:05;;;;;;;6.07;3.03;;;;;;;3.72;90.48;101587.16;5022867;28;20554;-62
2022/01/22 01:05:30;;;;;;;4.83;2.80;;;;;;;3.82;90.84;101590.53;4998821;28;20234;-62
2022/01/22 01:07:56;;;;;;;7.37;3.10;;;;;;;3.75;90.62;101593.94;5005062;28;20257;-62
2022/01/22 01:10:21;;;;;;;3.63;2.60;;;;;;;3.77;90.45;101594.78;4985980;28;20194;-62
2022/01/22 01:12:48;;;;;;;8.13;3.57;;;;;;;3.78;90.53;101599.00;5007796;28;20335;-62
2022/01/22 01:34:24;;;;;;;8.00;3.37;;;;;;;3.88;90.30;101590.53;4999176;28;20261;-63
2022/01/22 01:36:50;;;;;;;11.70;3.73;;;;;;;3.71;90.48;101588.00;5005587;28;20229;-62
2022/01/22 01:39:23;;;;;;;6.93;3.10;;;;;;;3.75;90.79;101591.41;5005557;28;20524;-62
2022/01/22 01:41:58;;;;;;;5.93;3.17;;;;;;;3.70;91.11;101598.19;5002553;28;20226;-62
2022/01/22 01:44:24;;;;;;;7.53;3.73;;;;;;;3.64;91.72;101577.84;4996976;28;20202;-62
2022/01/22 01:46:55;;;;;;;4.40;3.50;;;;;;;3.62;91.96;101585.50;5006255;28;20181;-62
2022/01/22 01:49:20;;;;;;;5.70;3.00;;;;;;;3.66;91.73;101586.31;4997110;28;20183;-62
2022/01/22 01:51:46;;;;;;;4.10;3.03;;;;;;;3.68;92.39;101574.44;4999024;28;20226;-62
2022/01/22 01:59:30;;;;;;;4.20;3.43;;;;;;;3.83;91.80;101592.22;4993475;28;20642;-62
2022/01/22 02:01:55;;;;;;;8.87;3.87;;;;;;;3.71;91.89;101592.25;5006115;28;20226;-62
2022/01/22 02:04:21;;;;;;;6.60;3.97;;;;;;;3.81;91.56;101588.84;4995092;28;20252;-61
2022/01/22 02:06:46;;;;;;;9.50;3.83;;;;;;;3.72;92.28;101588.84;4991981;28;20210;-62
2022/01/22 02:09:11;;;;;;;6.93;3.57;;;;;;;3.65;92.44;101597.38;5008677;28;20175;-62
2022/01/22 02:11:39;;;;;;;7.53;3.80;;;;;;;3.81;92.06;101596.47;5000358;28;20238;-62
2022/01/22 02:23:31;;;;;;;9.53;4.13;;;;;;;3.78;91.93;101588.81;4998504;28;20207;-62
2022/01/22 02:25:07;;;;;;;8.43;3.70;;;;;;;3.66;92.59;101588.84;4989631;28;20757;-62
2022/01/22 02:27:33;;;;;;;8.80;3.90;;;;;;;3.60;92.54;101591.41;4991283;28;20187;-62
2022/01/22 02:29:58;;;;;;;6.47;4.00;;;;;;;3.62;92.82;101593.13;4991070;28;20187;-61
2022/01/22 02:37:41;;;;;;;6.87;4.57;;;;;;;3.82;92.31;101572.72;4991524;28;20278;-62
2022/01/22 02:40:15;;;;;;;9.40;4.00;;;;;;;3.72;91.81;101573.56;4981334;28;20499;-62
2022/01/22 02:42:43;;;;;;;5.97;3.90;;;;;;;3.75;91.73;101573.56;5009479;28;20262;-62
2022/01/22 02:45:11;;;;;;;5.10;3.33;;;;;;;3.69;91.98;101576.13;5009360;28;20557;-61
2022/01/22 02:47:37;;;;;;;4.83;3.90;;;;;;;3.70;91.89;101571.03;5006869;28;20266;-62
2022/01/22 02:50:04;;;;;;;7.53;4.37;;;;;;;3.74;91.84;101573.59;5009104;28;20210;-62
2022/01/22 02:52:29;;;;;;;8.33;4.00;;;;;;;3.70;92.16;101573.59;4997835;28;20215;-62
2022/01/22 02:54:56;;;;;;;6.80;3.93;;;;;;;3.57;92.41;101569.34;5004538;28;20210;-62
2022/01/22 02:57:21;;;;;;;10.27;4.70;;;;;;;3.52;92.98;101563.44;5010906;28;20183;-62
2022/01/22 02:59:46;;;;;;;8.13;4.23;;;;;;;3.53;93.22;101568.53;4999261;28;20502;-62
2022/01/22 03:02:13;;;;;;;6.40;4.10;;;;;;;3.52;93.18;101569.41;4994418;28;20225;-61
2022/01/22 03:04:39;;;;;;;7.90;5.10;;;;;;;3.68;92.56;101564.25;4971348;28;20198;-62
2022/01/22 03:07:05;;;;;;;15.57;4.40;;;;;;;3.58;92.46;101567.69;4986610;28;20175;-62
2022/01/22 03:09:38;;;;;;;11.30;4.50;;;;;;;3.59;92.63;101570.22;4991058;28;20187;-62
2022/01/22 03:22:17;;;;;;;9.93;4.10;;;;;;;3.67;92.30;101580.38;4995738;28;20218;-62
2022/01/22 03:27:28;;;;;;;5.67;3.80;;;;;;;3.66;91.41;101571.03;4990904;28;20667;-64
2022/01/22 03:29:54;;;;;;;8.23;3.73;;;;;;;3.65;91.90;101570.22;4990554;28;20183;-63
2022/01/22 03:32:20;;;;;;;9.70;3.90;;;;;;;3.72;91.44;101573.56;4990644;28;20250;-62
2022/01/22 03:37:45;;;;;;;7.27;3.70;;;;;;;3.75;91.39;101576.13;4948984;28;20215;-62
2022/01/22 03:40:14;;;;;;;7.50;4.17;;;;;;;3.61;91.71;101568.53;4940297;28;20271;-62
2022/01/22 03:42:41;;;;;;;5.40;3.33;;;;;;;3.78;91.84;101570.19;4948917;28;20195;-63
2022/01/22 03:45:08;;;;;;;8.50;3.60;;;;;;;3.66;91.87;101578.66;4957595;28;20712;-63
2022/01/22 03:47:34;;;;;;;6.10;4.07;;;;;;;3.79;91.88;101569.34;4949466;28;20354;-62
2022/01/22 03:49:59;;;;;;;7.60;3.67;;;;;;;3.81;91.59;101573.56;4950304;28;20649;-62
2022/01/22 03:52:25;;;;;;;5.57;3.90;;;;;;;3.75;91.69;101568.50;4928780;28;20233;-62
2022/01/22 03:54:50;;;;;;;8.23;3.47;;;;;;;3.64;92.23;101576.13;4937696;29;20318;-62
2022/01/22 03:57:16;;;;;;;7.77;3.53;;;;;;;3.54;93.34;101577.00;4946854;29;20212;-62
2022/01/22 03:59:41;;;;;;;5.77;3.67;;;;;;;3.61;93.75;101570.22;4944573;28;20272;-62
2022/01/22 04:04:48;;;;;;;5.80;3.30;;;;;;;3.55;93.73;101564.28;4952988;29;20195;-62
2022/01/22 04:09:58;;;;;;;6.83;3.63;;;;;;;3.60;94.44;101571.06;4944785;29;20204;-61
2022/01/22 04:12:37;;;;;;;7.20;3.17;;;;;;;3.64;94.35;101562.59;4930563;28;20749;-61
2022/01/22 04:15:05;;;;;;;6.43;3.40;;;;;;;3.77;93.54;101560.84;4989317;28;20238;-61
2022/01/22 04:25:26;;;;;;;6.50;2.73;;;;;;;3.73;93.90;101565.09;5008483;28;20206;-63
2022/01/22 04:27:53;;;;;;;5.10;3.47;;;;;;;3.89;93.46;101563.34;4997777;28;20249;-64
2022/01/22 04:30:20;;;;;;;5.13;3.30;;;;;;;3.83;93.34;101553.19;4984460;28;20279;-63
2022/01/22 04:32:46;;;;;;;4.80;3.40;;;;;;;3.77;93.96;101559.16;5025903;28;20179;-63
2022/01/22 04:35:11;;;;;;;4.80;3.63;;;;;;;3.86;93.82;101545.56;5008456;28;20338;-64
2022/01/22 04:37:36;;;;;;;4.60;3.00;;;;;;;3.75;93.56;101555.75;5026303;28;20535;-64
2022/01/22 04:40:02;;;;;;;4.73;3.10;;;;;;;3.73;94.18;101552.38;5013863;28;20292;-63
2022/01/22 04:42:30;;;;;;;5.97;3.47;;;;;;;3.80;94.42;101553.22;4988512;28;20753;-64
2022/01/22 04:45:02;;;;;;;6.27;3.40;;;;;;;3.88;93.83;101556.56;5003691;28;20900;-63
2022/01/22 04:47:36;;;;;;;4.13;3.17;;;;;;;3.75;94.19;101562.56;4993678;28;20695;-64
2022/01/22 04:55:31;;;;;;;4.13;2.97;;;;;;;3.71;95.54;101564.28;5003463;28;20213;-64
2022/01/22 04:57:57;;;;;;;6.40;3.33;;;;;;;3.67;96.04;101573.59;5006983;28;20175;-63
2022/01/22 05:00:23;;;;;;;5.47;4.17;;;;;;;3.63;96.35;101560.88;4987444;28;20196;-63
2022/01/22 05:02:50;;;;;;;3.40;2.57;;;;;;;3.66;96.30;101558.31;5023673;28;20189;-63
2022/01/22 05:05:15;;;;;;;4.70;3.07;;;;;;;3.75;96.76;101570.19;5003083;28;20198;-63
2022/01/22 05:07:40;;;;;;;4.60;3.00;;;;;;;3.69;97.31;101560.88;5008637;28;20182;-64
2022/01/22 05:10:08;;;;;;;4.83;3.00;;;;;;;3.78;97.16;101563.38;4988105;28;20184;-62
2022/01/22 05:12:33;;;;;;;4.93;2.80;;;;;;;3.70;96.86;101568.50;5025672;28;20193;-63
2022/01/22 05:14:59;;;;;;;4.10;3.20;;;;;;;3.82;96.80;101561.66;5010941;28;20210;-64
2022/01/22 05:17:24;;;;;;;3.60;2.83;;;;;;;3.88;96.63;101556.56;5012159;28;20174;-62
2022/01/22 05:20:24;;;;;;;4.90;3.30;;;;;;;3.80;96.50;101569.31;5007503;28;20253;-63
2022/01/22 05:22:57;;;;;;;5.17;3.53;;;;;;;3.66;97.47;101563.41;4980029;28;20214;-63
2022/01/22 05:25:33;;;;;;;4.63;3.17;;;;;;;3.78;98.01;101565.09;4994417;28;20203;-64
2022/01/22 05:30:57;;;;;;;3.83;3.40;;;;;;;3.82;97.71;101566.75;4974070;28;20237;-63
2022/01/22 05:38:51;;;;;;;4.77;3.30;;;;;;;3.73;99.37;101572.72;5002015;28;20194;-62
2022/01/22 05:41:16;;;;;;;7.73;3.50;;;;;;;3.78;98.84;101573.56;5004030;28;20226;-63
2022/01/22 05:43:41;;;;;;;5.30;3.87;;;;;;;3.96;98.93;101571.84;5011415;28;20695;-63
2022/01/22 05:46:07;;;;;;;6.43;3.50;;;;;;;3.99;98.36;101566.72;4994556;28;20229;-62
2022/01/22 05:48:32;;;;;;;5.60;3.20;;;;;;;3.94;97.47;101564.19;5000244;28;20289;-64
2022/01/22 05:51:01;;;;;;;2.97;2.70;;;;;;;3.90;98.15;101566.75;4991059;28;20232;-63
2022/01/22 06:01:20;;;;;;;5.53;3.37;;;;;;;4.01;97.53;101591.31;5006632;28;20300;-63
2022/01/22 06:03:45;;;;;;;5.90;3.27;;;;;;;4.15;97.16;101588.72;5011598;28;20178;-63
2022/01/22 06:06:11;;;;;;;6.43;4.50;;;;;;;4.27;96.26;101587.81;5011293;28;20213;-62
2022/01/22 06:08:44;;;;;;;5.80;4.90;;;;;;;4.08;96.14;101598.94;5011698;28;20177;-62
2022/01/22 06:11:11;;;;;;;6.27;3.87;;;;;;;4.19;97.05;101599.75;5010406;28;20262;-63
2022/01/22 06:13:44;;;;;;;6.23;3.73;;;;;;;4.24;96.90;101600.56;5013554;28;20194;-63
2022/01/22 06:16:21;;;;;;;6.23;4.53;;;;;;;3.95;98.04;101611.69;5011669;28;20229;-63
2022/01/22 06:18:46;;;;;;;5.17;4.07;;;;;;;3.99;98.77;101612.53;5009710;28;20171;-63
2022/01/22 06:21:12;;;;;;;3.90;3.47;;;;;;;3.78;99.92;101614.28;4984363;28;20296;-63
2022/01/22 06:23:39;;;;;;;7.10;4.27;;;;;;;3.88;100.00;101607.47;5009461;28;20172;-64
2022/01/22 06:26:05;;;;;;;4.90;3.80;;;;;;;3.80;100.00;101597.31;5009772;28;20187;-63
2022/01/22 06:28:32;;;;;;;3.90;3.60;;;;;;;3.81;100.00;101603.28;4996848;28;20682;-63
2022/01/22 06:30:58;;;;;;;4.77;4.10;;;;;;;3.86;100.00;101602.41;4995740;28;20404;-64
2022/01/22 06:33:24;;;;;;;5.13;4.00;;;;;;;3.82;100.00;101594.75;5010325;28;20291;-63
2022/01/22 06:35:50;;;;;;;5.00;4.30;;;;;;;3.70;100.00;101595.66;4992645;28;20275;-63
2022/01/22 06:38:16;;;;;;;4.73;4.07;;;;;;;3.67;100.00;101605.81;5004525;28;20197;-64
2022/01/22 06:43:07;;;;;;;5.33;4.50;;;;;;;3.61;100.00;101605.84;5010317;28;20175;-62
2022/01/22 06:45:33;;;;;;;5.17;4.67;;;;;;;3.63;100.00;101614.31;5008338;28;20277;-63
2022/01/22 06:47:58;;;;;;;7.10;4.63;;;;;;;3.79;100.00;101612.59;5008520;28;20191;-63
2022/01/22 06:50:24;;;;;;;7.97;3.87;;;;;;;3.81;100.00;101611.75;5001246;28;20261;-63
2022/01/22 06:52:57;;;;;;;4.33;3.93;;;;;;;3.74;100.00;101616.84;5022726;28;20186;-63
2022/01/22 06:55:39;;;;;;;4.87;4.17;;;;;;;3.74;100.00;101630.41;5016643;28;20206;-63
2022/01/22 06:58:05;;;;;;;6.17;3.77;;;;;;;3.76;100.00;101622.78;5010571;28;20178;-63
2022/01/22 07:00:30;;;;;;;4.17;3.77;;;;;;;3.79;100.00;101621.06;4997854;28;20264;-62
2022/01/22 07:02:55;;;;;;;4.70;3.90;;;;;;;3.78;100.00;101623.63;5020706;28;20179;-63
2022/01/22 07:05:21;;;;;;;3.87;3.57;;;;;;;3.95;100.00;101621.06;5009563;28;20190;-64
2022/01/22 07:07:46;;;;;;;4.07;3.77;;;;;;;3.95;100.00;101621.88;5010426;28;20228;-62
2022/01/22 07:10:11;;;;;;;6.13;4.20;;;;;;;3.91;100.00;101622.75;4991074;28;20183;-62
2022/01/22 07:12:37;;;;;;;4.23;3.83;;;;;;;3.88;100.00;101617.66;5023964;28;20171;-63
2022/01/22 07:15:03;;;;;;;5.20;4.00;;;;;;;3.94;100.00;101625.28;5008899;28;20683;-63
2022/01/22 07:17:34;;;;;;;4.40;4.00;;;;;;;3.86;100.00;101619.38;5003767;28;20294;-63
2022/01/22 07:20:00;;;;;;;6.13;4.30;;;;;;;3.78;100.00;101621.91;5001342;28;20186;-63
2022/01/22 07:24:57;;;;;;;4.77;4.37;;;;;;;3.98;100.00;101637.19;5008916;28;20729;-63
2022/01/22 07:27:22;;;;;;;7.63;4.03;;;;;;;3.98;100.00;101641.41;5003244;28;20262;-63
2022/01/22 07:29:49;;;;;;;4.70;4.30;;;;;;;3.91;100.00;101642.25;4990698;28;20189;-63
2022/01/22 07:32:25;;;;;;;8.43;3.93;;;;;;;3.94;100.00;101643.09;5013039;28;20585;-62
2022/01/22 07:34:51;;;;;;;3.63;3.33;;;;;;;3.95;100.00;101656.69;4999783;28;20210;-63
2022/01/22 07:37:16;;;;;;;4.10;3.70;;;;;;;3.88;100.00;101641.44;5010167;28;20285;-62
2022/01/22 07:39:41;;;;;;;3.70;3.40;;;;;;;3.90;100.00;101641.41;4991208;28;20175;-62
2022/01/22 07:42:07;;;;;;;3.90;3.60;;;;;;;3.98;100.00;101642.25;5010865;28;20261;-63
2022/01/22 07:44:32;;;;;;;4.77;3.97;;;;;;;3.97;100.00;101643.13;5009672;28;20202;-63
2022/01/22 07:46:58;;;;;;;4.33;3.33;;;;;;;3.95;100.00;101636.34;5010315;28;20174;-61
2022/01/22 07:49:23;;;;;;;4.67;3.30;;;;;;;3.85;100.00;101643.97;5009549;28;20248;-62
2022/01/22 07:51:49;;;;;;;4.30;3.60;;;;;;;3.87;100.00;101634.66;5014976;28;20233;-62
2022/01/22 07:54:14;;;;;;;4.13;2.90;;;;;;;3.91;100.00;101647.34;5013596;28;20284;-63
2022/01/22 07:56:40;;;;;;;3.70;3.40;;;;;;;3.95;100.00;101641.41;5014069;28;20209;-61
2022/01/22 07:59:05;;;;;;;3.43;2.97;;;;;;;3.94;100.00;101643.09;5008316;28;20535;-62
2022/01/22 08:01:30;;;;;;;3.83;3.50;;;;;;;3.95;100.00;101639.72;4991442;28;20222;-62
2022/01/22 08:03:56;;;;;;;3.97;3.20;;;;;;;4.08;100.00;101645.63;5012152;28;20236;-62
2022/01/22 08:06:21;;;;;;;4.63;3.50;;;;;;;4.05;100.00;101640.53;5011199;28;20186;-63
2022/01/22 08:08:46;;;;;;;3.70;3.40;;;;;;;3.93;100.00;101643.97;5012101;28;20213;-61
2022/01/22 08:11:12;;;;;;;3.97;3.10;;;;;;;4.00;100.00;101639.72;5004051;28;20634;-62
2022/01/22 08:13:37;;;;;;;3.00;2.80;;;;;;;4.09;100.00;101639.66;5001706;28;20211;-62
2022/01/22 08:16:02;;;;;;;3.10;2.90;;;;;;;4.13;100.00;101641.38;4985207;28;20300;-62
2022/01/22 08:18:27;;;;;;;3.43;3.13;;;;;;;4.16;100.00;101643.91;5004127;28;20178;-62
2022/01/22 08:20:53;;;;;;;3.27;3.07;;;;;;;4.11;100.00;101635.44;4987900;28;20274;-61
2022/01/22 08:23:20;;;;;;;3.20;2.87;;;;;;;4.19;100.00;101646.44;4999678;28;20667;-62
2022/01/22 08:25:47;;;;;;;4.17;3.20;;;;;;;4.19;100.00;101650.69;4994986;28;20198;-62
2022/01/22 08:30:57;;;;;;;3.27;3.07;;;;;;;4.34;100.00;101652.31;4969136;28;20697;-63
2022/01/22 08:35:53;;;;;;;2.83;2.63;;;;;;;4.26;100.00;101648.97;5010419;28;20224;-62
2022/01/22 08:38:23;;;;;;;3.50;3.20;;;;;;;4.35;100.00;101660.00;5021514;28;20189;-62
2022/01/22 08:40:49;;;;;;;3.83;3.23;;;;;;;4.48;100.00;101654.84;4991417;28;20287;-64
2022/01/22 08:43:14;;;;;;;4.47;3.97;;;;;;;4.48;100.00;101655.69;4983389;28;20266;-62
2022/01/22 08:45:40;;;;;;;5.07;3.63;;;;;;;4.46;100.00;101672.66;5001996;28;20271;-63
2022/01/22 08:48:05;;;;;;;3.20;2.90;;;;;;;4.47;100.00;101676.06;4995801;28;20168;-63
2022/01/22 08:50:32;;;;;;;4.43;3.10;;;;;;;4.44;100.00;101682.03;5001789;28;20305;-63
2022/01/22 08:52:57;;;;;;;3.63;3.33;;;;;;;4.49;100.00;101689.63;5010920;28;20212;-63
2022/01/22 08:55:23;;;;;;;3.43;3.13;;;;;;;4.52;100.00;101693.03;4999590;28;20614;-63
2022/01/22 08:57:49;;;;;;;4.27;3.87;;;;;;;4.45;100.00;101698.16;4997298;28;20215;-63
2022/01/22 09:00:17;;;;;;;3.67;3.33;;;;;;;4.48;100.00;101693.91;5004340;28;20206;-62
2022/01/22 09:02:44;;;;;;;3.60;3.30;;;;;;;4.39;100.00;101690.53;5014402;28;20266;-62
2022/01/22 09:05:10;;;;;;;4.20;3.70;;;;;;;4.39;100.00;101698.19;5017010;28;20247;-62
2022/01/22 09:07:35;;;;;;;4.83;3.73;;;;;;;4.37;100.00;101693.09;4992816;28;20198;-62
2022/01/22 09:10:00;;;;;;;5.20;3.73;;;;;;;4.49;100.00;101695.59;5017651;28;20174;-62
2022/01/22 09:12:26;;;;;;;5.23;3.50;;;;;;;4.75;100.00;101696.34;5018128;28;20233;-62
2022/01/22 09:14:51;;;;;;;4.07;3.30;;;;;;;4.73;100.00;101696.34;4999766;28;20589;-62
2022/01/22 09:17:17;;;;;;;5.13;3.70;;;;;;;4.65;100.00;101709.13;4997467;28;20190;-63
2022/01/22 09:19:46;;;;;;;4.80;3.93;;;;;;;4.69;100.00;101705.72;5013147;28;20175;-62
2022/01/22 09:22:11;;;;;;;4.90;3.57;;;;;;;4.78;100.00;101701.44;5002404;28;20257;-62
2022/01/22 09:24:37;;;;;;;4.60;3.93;;;;;;;4.97;100.00;101707.28;5010975;28;20226;-60
2022/01/22 09:27:05;;;;;;;4.67;3.73;;;;;;;5.24;100.00;101708.00;5013141;28;20178;-60
2022/01/22 09:29:30;;;;;;;3.70;3.37;;;;;;;5.64;100.00;101706.00;4993599;28;20194;-59
2022/01/22 09:31:56;;;;;;;4.27;3.87;;;;;;;5.81;97.04;101707.53;5006960;28;20230;-59
2022/01/22 09:34:21;;;;;;;3.50;3.20;;;;;;;6.11;94.36;101708.97;4994182;28;20216;-59
2022/01/22 09:36:46;;;;;;;3.40;3.10;;;;;;;6.42;92.50;101698.44;5001850;28;20181;-58
2022/01/22 09:39:14;;;;;;;3.23;2.90;;;;;;;6.66;90.72;101693.03;4993539;28;20178;-59
2022/01/22 09:41:40;;;;;;;2.90;2.70;;;;;;;7.05;89.25;101706.19;5005622;28;20225;-59
2022/01/22 09:44:06;;;;;;;3.93;3.10;;;;;;;7.25;88.11;101709.28;5015111;28;20200;-61
2022/01/22 09:46:32;;;;;;;3.67;3.33;;;;;;;7.56;85.42;101710.53;5012006;28;20216;-58
2022/01/22 09:48:57;;;;;;;4.20;2.70;;;;;;;7.97;82.30;101706.41;5012215;28;20206;-63
2022/01/22 09:51:24;;;;;;;3.00;2.80;;;;;;;8.21;79.78;101720.50;5001419;28;20219;-60
2022/01/22 09:53:49;;;;;;;2.93;2.73;;;;;;;8.44;78.07;101718.38;5001326;28;20200;-61
2022/01/22 09:56:21;;;;;;;5.13;3.53;;;;;;;8.81;76.27;101713.38;4987913;28;20183;-61
2022/01/22 09:58:47;;;;;;;3.50;3.20;;;;;;;8.64;75.58;101712.88;5008313;28;20186;-62
2022/01/22 10:01:27;;;;;;;3.77;3.47;;;;;;;7.86;78.31;101714.31;4991249;28;20234;-66
2022/01/22 10:04:04;;;;;;;3.80;3.40;;;;;;;6.89;83.67;101708.94;4997291;28;20166;-66
2022/01/22 10:06:46;;;;;;;5.87;4.20;;;;;;;6.39;86.47;101718.94;4992704;28;20262;-61
2022/01/22 10:09:15;;;;;;;5.60;4.90;;;;;;;6.03;90.03;101715.03;5007557;28;20175;-64
2022/01/22 10:11:41;;;;;;;6.57;5.07;;;;;;;6.00;90.75;101710.78;4994183;28;20613;-63
2022/01/22 10:14:08;;;;;;;8.20;6.90;;;;;;;5.69;92.41;101700.81;4986061;28;20213;-63
2022/01/22 10:16:35;;;;;;;12.40;8.40;;;;;;;5.36;94.54;101692.59;4974543;28;20203;-63
2022/01/22 10:19:21;;;;;;;7.70;6.20;;;;;;;5.42;95.40;101690.00;4978483;28;20176;-62
2022/01/22 10:21:56;;;;;;;6.97;5.17;;;;;;;5.37;95.22;101691.75;5002136;28;20338;-63
2022/01/22 10:24:29;;;;;;;7.13;6.00;;;;;;;5.44;95.26;101695.91;4992213;28;20264;-67
2022/01/22 10:27:39;;;;;;;8.90;5.87;;;;;;;5.58;94.21;101708.59;5006690;28;20234;-70
2022/01/22 10:30:12;;;;;;;9.40;5.43;;;;;;;5.75;93.51;101705.88;4942586;28;20198;-67
2022/01/22 10:35:09;;;;;;;9.03;6.93;;;;;;;5.77;92.96;101713.56;4952932;28;20218;-68
2022/01/22 10:37:36;;;;;;;5.73;5.20;;;;;;;5.95;92.32;101710.84;4960779;28;21655;-72
2022/01/22 10:40:21;;;;;;;6.87;5.53;;;;;;;5.95;93.04;101718.50;4969795;28;20251;-64
2022/01/22 10:42:47;;;;;;;5.47;4.97;;;;;;;6.06;92.24;101723.50;4910681;29;20323;-64
2022/01/22 10:45:19;;;;;;;6.33;5.07;;;;;;;6.08;91.37;101720.97;4929768;29;20296;-63
2022/01/22 10:47:45;;;;;;;7.27;6.10;;;;;;;6.14;90.22;101724.28;4933522;29;20203;-67
2022/01/22 10:50:20;;;;;;;6.57;5.97;;;;;;;6.09;90.95;101728.59;4937109;29;20348;-65
2022/01/22 10:52:53;;;;;;;5.47;5.07;;;;;;;6.13;91.79;101726.88;4943156;28;20232;-64
2022/01/22 10:55:19;;;;;;;4.83;4.23;;;;;;;6.45;90.83;101723.97;4951205;28;20364;-63
2022/01/22 10:58:07;;;;;;;5.17;4.60;;;;;;;6.59;89.34;101728.91;4950216;29;20199;-64
2022/01/22 11:00:34;;;;;;;5.00;4.50;;;;;;;6.94;87.92;101726.78;4969047;28;20248;-65
2022/01/22 11:03:18;;;;;;;4.60;4.07;;;;;;;6.80;86.81;101716.75;5007920;28;20182;-64
2022/01/22 11:05:44;;;;;;;5.07;4.37;;;;;;;6.91;86.65;101720.00;4999937;28;20612;-63
2022/01/22 11:08:12;;;;;;;4.63;4.23;;;;;;;6.78;86.68;101719.31;5007062;28;20185;-63
2022/01/22 11:10:38;;;;;;;3.90;3.50;;;;;;;6.82;86.46;101721.84;4994127;28;20314;-63
2022/01/22 11:13:04;;;;;;;3.70;3.30;;;;;;;7.02;86.10;101719.00;4990141;28;20178;-62
2022/01/22 11:15:30;;;;;;;3.80;3.50;;;;;;;6.52;85.64;101714.50;4991963;28;20268;-63
2022/01/22 11:17:56;;;;;;;3.60;3.30;;;;;;;6.67;86.44;101731.38;4991305;28;20176;-63
2022/01/22 11:20:24;;;;;;;5.33;2.93;;;;;;;6.69;85.34;101726.25;4981464;28;20201;-63
2022/01/22 11:22:52;;;;;;;4.10;3.27;;;;;;;6.55;85.21;101719.59;4990749;28;20182;-61
2022/01/22 11:25:19;;;;;;;3.50;3.20;;;;;;;6.30;86.28;101716.44;4993346;28;20285;-62
2022/01/22 11:27:47;;;;;;;3.10;2.80;;;;;;;6.25;85.96;101723.31;5009133;28;20288;-63
2022/01/22 11:30:15;;;;;;;4.37;3.10;;;;;;;6.39;87.23;101728.31;4987077;28;20191;-62
2022/01/22 11:32:49;;;;;;;3.30;3.00;;;;;;;6.35;87.08;101717.28;5001374;28;20177;-62
2022/01/22 11:35:21;;;;;;;4.73;3.27;;;;;;;6.36;86.99;101730.88;5009790;28;20213;-63
2022/01/22 11:37:49;;;;;;;3.67;3.30;;;;;;;6.13;87.48;101719.22;5009934;28;20191;-62
2022/01/22 11:40:24;;;;;;;3.33;3.03;;;;;;;6.11;88.39;101720.91;4998217;28;20194;-63
2022/01/22 11:45:46;;;;;;;5.77;3.50;;;;;;;6.27;87.69;101722.44;4990416;28;20220;-64
2022/01/22 11:48:25;;;;;;;3.53;3.23;;;;;;;6.11;87.24;101723.47;4990662;28;20180;-63
2022/01/22 11:50:53;;;;;;;4.20;3.83;;;;;;;5.87;88.19;101730.47;4986546;28;20297;-63
2022/01/22 11:53:37;;;;;;;3.50;3.00;;;;;;;5.94;88.25;101732.13;4996585;28;20205;-62
2022/01/22 11:56:11;;;;;;;3.30;3.00;;;;;;;5.60;87.93;101729.84;4990373;28;20516;-63
2022/01/22 11:58:55;;;;;;;3.43;2.80;;;;;;;5.59;89.36;101735.78;4990281;28;20193;-63
2022/01/22 12:01:43;;;;;;;2.60;2.40;;;;;;;5.57;87.60;101724.75;4980470;28;20222;-63
2022/01/22 12:04:10;;;;;;;2.40;2.20;;;;;;;5.61;87.93;101731.53;4982900;28;20263;-63
2022/01/22 12:06:36;;;;;;;2.87;2.47;;;;;;;5.64;88.12;101739.19;4990307;28;20230;-63
2022/01/22 12:09:09;;;;;;;5.70;4.33;;;;;;;5.90;87.69;101737.25;4990218;28;20214;-63
2022/01/22 12:14:47;;;;;;;2.53;1.93;;;;;;;6.02;85.54;101737.19;4974834;28;20254;-64
2022/01/22 12:17:19;;;;;;;2.27;2.17;;;;;;;5.95;84.81;101733.81;4978873;28;20324;-63
2022/01/22 12:20:19;;;;;;;3.60;2.60;;;;;;;6.12;85.65;101732.84;4984028;28;20182;-63
2022/01/22 12:22:52;;;;;;;18.70;11.00;;;;;;;6.11;86.18;101738.81;4957176;28;20228;-63
2022/01/22 12:25:23;;;;;;;10.47;7.00;;;;;;;6.22;86.24;101743.81;4991501;28;20909;-63
2022/01/22 12:27:53;;;;;;;4.60;4.17;;;;;;;6.25;85.72;101746.31;4974632;28;20265;-63
2022/01/22 12:30:38;;;;;;;3.23;2.93;;;;;;;5.95;85.79;101746.59;4959726;28;20569;-63
2022/01/22 12:33:07;;;;;;;3.60;2.60;;;;;;;5.92;86.94;101738.09;5018747;28;20196;-63
2022/01/22 12:35:38;;;;;;;3.83;2.63;;;;;;;5.98;86.78;101738.06;5011192;28;20209;-63
2022/01/22 12:44:09;;;;;;;2.63;2.30;;;;;;;5.72;85.88;101728.91;4979790;28;20184;-63
2022/01/22 12:46:36;;;;;;;3.57;2.93;;;;;;;5.76;86.73;101729.72;4983056;28;20307;-64
2022/01/22 12:49:06;;;;;;;2.83;2.63;;;;;;;5.74;87.93;101719.53;4973067;28;20220;-63
2022/01/22 12:51:33;;;;;;;3.50;2.23;;;;;;;5.66;87.27;101731.50;4966325;28;20963;-63
2022/01/22 12:53:59;;;;;;;3.13;2.10;;;;;;;5.71;87.52;101727.19;4985760;28;20795;-63
2022/01/22 12:59:02;;;;;;;2.30;2.10;;;;;;;5.76;88.19;101732.28;4990754;28;20625;-66
2022/01/22 13:01:30;;;;;;;2.90;2.70;;;;;;;5.76;87.96;101725.44;4964687;28;20241;-63
2022/01/22 13:03:56;;;;;;;3.93;3.13;;;;;;;5.94;87.80;101723.59;4971137;28;20193;-63
2022/01/22 13:06:25;;;;;;;2.93;2.63;;;;;;;6.03;87.38;101721.00;4980736;28;20260;-62
2022/01/22 13:08:56;;;;;;;2.93;2.63;;;;;;;6.11;87.13;101716.66;4990718;28;20706;-63
2022/01/22 13:11:25;;;;;;;2.63;2.43;;;;;;;5.97;85.74;101716.75;4961633;28;20231;-63
2022/01/22 13:13:51;;;;;;;5.13;2.83;;;;;;;6.03;85.60;101709.91;4971408;28;20207;-63
2022/01/22 13:16:17;;;;;;;3.80;2.17;;;;;;;5.84;87.21;101709.22;4975651;28;20245;-63
2022/01/22 13:18:50;;;;;;;2.47;2.27;;;;;;;5.86;87.16;101708.34;4993073;28;20269;-63
2022/01/22 13:21:17;;;;;;;4.80;2.83;;;;;;;5.88;86.78;101715.97;5010887;28;20228;-63
2022/01/22 13:23:46;;;;;;;2.50;2.30;;;;;;;6.03;86.59;101712.47;5000606;28;20606;-64
2022/01/22 13:26:11;;;;;;;5.07;2.97;;;;;;;6.10;86.71;101725.19;5000030;28;20205;-63
2022/01/22 13:28:38;;;;;;;3.80;2.80;;;;;;;6.09;86.43;101720.06;5012655;28;20227;-64
2022/01/22 13:31:17;;;;;;;4.67;3.30;;;;;;;5.90;87.44;101714.28;4994520;28;20229;-63
2022/01/22 13:33:51;;;;;;;5.83;2.93;;;;;;;6.10;87.82;101714.97;5016172;28;20223;-63